sensor_id;sensor_type;location;lat;lon;timestamp;pressure;altitude;pressure_sealevel;temperature;humidity
18569;BME280;14780;48.316;-1.050;2022-09-13T00:01:08;98281.31;;;26.50;47.53
18569;BME280;14780;48.316;-1.050;2022-09-13T00:03:54;98285.47;;;26.47;47.35
18569;BME280;14780;48.316;-1.050;2022-09-13T00:06:38;98281.13;;;26.46;47.37
18569;BME280;14780;48.316;-1.050;2022-09-13T00:09:23;98290.13;;;26.47;47.54
18569;BME280;14780;48.316;-1.050;2022-09-13T00:12:07;98294.34;;;26.44;47.57
18569;BME280;14780;48.316;-1.050;2022-09-13T00:14:52;98301.44;;;26.45;47.53
18569;BME280;14780;48.316;-1.050;2022-09-13T00:17:37;98304.47;;;26.44;47.53
18569;BME280;14780;48.316;-1.050;2022-09-13T00:20:21;98295.75;;;26.42;47.53
18569;BME280;14780;48.316;-1.050;2022-09-13T00:23:06;98296.56;;;26.42;47.49
18569;BME280;14780;48.316;-1.050;2022-09-13T00:25:52;98302.38;;;26.41;47.45
18569;BME280;14780;48.316;-1.050;2022-09-13T00:28:37;98298.81;;;26.40;47.43
18569;BME280;14780;48.316;-1.050;2022-09-13T00:31:24;98303.47;;;26.40;47.53
18569;BME280;14780;48.316;-1.050;2022-09-13T00:34:11;98308.94;;;26.40;47.49
18569;BME280;14780;48.316;-1.050;2022-09-13T00:36:56;98302.16;;;26.37;47.60
18569;BME280;14780;48.316;-1.050;2022-09-13T00:39:41;98302.97;;;26.38;47.44
18569;BME280;14780;48.316;-1.050;2022-09-13T00:42:27;98300.03;;;26.34;47.47
18569;BME280;14780;48.316;-1.050;2022-09-13T00:45:17;98292.63;;;26.35;47.45
18569;BME280;14780;48.316;-1.050;2022-09-13T00:48:05;98291.78;;;26.34;47.50
18569;BME280;14780;48.316;-1.050;2022-09-13T00:50:54;98286.59;;;26.33;47.63
18569;BME280;14780;48.316;-1.050;2022-09-13T00:53:43;98280.31;;;26.32;47.65
18569;BME280;14780;48.316;-1.050;2022-09-13T00:56:36;98267.41;;;26.33;47.73
18569;BME280;14780;48.316;-1.050;2022-09-13T00:59:30;98264.16;;;26.31;47.73
18569;BME280;14780;48.316;-1.050;2022-09-13T01:02:16;98267.84;;;26.26;47.78
18569;BME280;14780;48.316;-1.050;2022-09-13T01:05:02;98265.09;;;26.26;47.71
18569;BME280;14780;48.316;-1.050;2022-09-13T01:07:47;98263.47;;;26.25;47.83
18569;BME280;14780;48.316;-1.050;2022-09-13T01:10:33;98251.09;;;26.28;47.57
18569;BME280;14780;48.316;-1.050;2022-09-13T01:13:25;98251.69;;;26.25;47.85
18569;BME280;14780;48.316;-1.050;2022-09-13T01:16:11;98256.38;;;26.24;47.85
18569;BME280;14780;48.316;-1.050;2022-09-13T01:18:56;98258.28;;;26.24;47.92
18569;BME280;14780;48.316;-1.050;2022-09-13T01:25:35;98276.06;;;26.26;47.54
18569;BME280;14780;48.316;-1.050;2022-09-13T01:35:14;98294.28;;;26.22;47.78
18569;BME280;14780;48.316;-1.050;2022-09-13T01:38:30;98300.84;;;26.21;47.80
18569;BME280;14780;48.316;-1.050;2022-09-13T01:47:30;98313.84;;;26.16;47.81
18569;BME280;14780;48.316;-1.050;2022-09-13T01:50:40;98305.94;;;26.14;48.05
18569;BME280;14780;48.316;-1.050;2022-09-13T01:53:42;98307.56;;;26.15;48.04
18569;BME280;14780;48.316;-1.050;2022-09-13T01:56:37;98309.78;;;26.13;47.77
18569;BME280;14780;48.316;-1.050;2022-09-13T01:59:53;98328.69;;;26.15;47.90
18569;BME280;14780;48.316;-1.050;2022-09-13T02:06:13;98327.06;;;26.14;47.77
18569;BME280;14780;48.316;-1.050;2022-09-13T02:09:20;98325.25;;;26.09;48.06
18569;BME280;14780;48.316;-1.050;2022-09-13T02:12:15;98327.16;;;26.09;48.06
18569;BME280;14780;48.316;-1.050;2022-09-13T02:18:17;98339.44;;;26.11;48.02
18569;BME280;14780;48.316;-1.050;2022-09-13T02:21:16;98370.72;;;26.10;48.02
18569;BME280;14780;48.316;-1.050;2022-09-13T02:24:17;98361.69;;;26.10;47.95
18569;BME280;14780;48.316;-1.050;2022-09-13T02:27:10;98361.19;;;26.08;48.13
18569;BME280;14780;48.316;-1.050;2022-09-13T02:30:00;98353.25;;;26.06;48.04
18569;BME280;14780;48.316;-1.050;2022-09-13T02:32:53;98357.94;;;26.06;48.15
18569;BME280;14780;48.316;-1.050;2022-09-13T02:35:52;98351.34;;;26.07;48.11
18569;BME280;14780;48.316;-1.050;2022-09-13T02:38:53;98354.88;;;26.07;48.11
18569;BME280;14780;48.316;-1.050;2022-09-13T02:44:53;98330.31;;;26.02;48.23
18569;BME280;14780;48.316;-1.050;2022-09-13T02:47:43;98335.28;;;26.00;48.27
18569;BME280;14780;48.316;-1.050;2022-09-13T02:50:48;98341.28;;;26.02;48.02
18569;BME280;14780;48.316;-1.050;2022-09-13T02:56:50;98361.59;;;26.01;48.33
18569;BME280;14780;48.316;-1.050;2022-09-13T02:59:37;98351.22;;;25.98;48.35
18569;BME280;14780;48.316;-1.050;2022-09-13T03:02:24;98349.31;;;25.99;48.29
18569;BME280;14780;48.316;-1.050;2022-09-13T03:05:11;98356.09;;;26.01;48.10
18569;BME280;14780;48.316;-1.050;2022-09-13T03:07:57;98342.19;;;25.98;48.10
18569;BME280;14780;48.316;-1.050;2022-09-13T03:14:33;98315.78;;;26.02;48.14
18569;BME280;14780;48.316;-1.050;2022-09-13T03:17:46;98299.63;;;26.00;48.22
18569;BME280;14780;48.316;-1.050;2022-09-13T03:23:27;98232.34;;;25.94;48.37
18569;BME280;14780;48.316;-1.050;2022-09-13T03:26:25;98167.06;;;25.96;48.18
18569;BME280;14780;48.316;-1.050;2022-09-13T03:29:26;98146.28;;;25.95;48.27
18569;BME280;14780;48.316;-1.050;2022-09-13T03:32:35;98120.78;;;25.95;48.05
18569;BME280;14780;48.316;-1.050;2022-09-13T03:38:36;98093.19;;;25.91;48.25
18569;BME280;14780;48.316;-1.050;2022-09-13T03:41:26;98097.03;;;25.90;48.36
18569;BME280;14780;48.316;-1.050;2022-09-13T03:44:17;98102.81;;;25.89;48.39
18569;BME280;14780;48.316;-1.050;2022-09-13T03:47:05;98103.66;;;25.89;48.37
18569;BME280;14780;48.316;-1.050;2022-09-13T03:49:52;98091.06;;;25.88;48.46
18569;BME280;14780;48.316;-1.050;2022-09-13T03:52:39;98084.47;;;25.89;48.45
18569;BME280;14780;48.316;-1.050;2022-09-13T03:55:24;98087.47;;;25.88;48.39
18569;BME280;14780;48.316;-1.050;2022-09-13T03:58:11;98079.59;;;25.86;48.40
18569;BME280;14780;48.316;-1.050;2022-09-13T04:00:57;98075.72;;;25.87;48.43
18569;BME280;14780;48.316;-1.050;2022-09-13T04:03:41;98074.09;;;25.86;48.51
18569;BME280;14780;48.316;-1.050;2022-09-13T04:06:26;98074.09;;;25.86;48.39
18569;BME280;14780;48.316;-1.050;2022-09-13T04:09:11;98082.31;;;25.86;48.51
18569;BME280;14780;48.316;-1.050;2022-09-13T04:11:55;98074.69;;;25.83;48.51
18569;BME280;14780;48.316;-1.050;2022-09-13T04:14:41;98074.69;;;25.83;48.42
18569;BME280;14780;48.316;-1.050;2022-09-13T04:17:27;98074.69;;;25.83;48.64
18569;BME280;14780;48.316;-1.050;2022-09-13T04:20:12;98078.56;;;25.82;48.50
18569;BME280;14780;48.316;-1.050;2022-09-13T04:22:57;98088.69;;;25.82;48.52
18569;BME280;14780;48.316;-1.050;2022-09-13T04:25:42;98081.31;;;25.82;48.45
18569;BME280;14780;48.316;-1.050;2022-09-13T04:28:26;98088.22;;;25.80;48.46
18569;BME280;14780;48.316;-1.050;2022-09-13T04:31:12;98090.94;;;25.80;48.53
18569;BME280;14780;48.316;-1.050;2022-09-13T04:33:56;98095.63;;;25.79;48.53
18569;BME280;14780;48.316;-1.050;2022-09-13T04:36:44;98112.06;;;25.79;48.51
18569;BME280;14780;48.316;-1.050;2022-09-13T04:39:29;98122.50;;;25.77;48.60
18569;BME280;14780;48.316;-1.050;2022-09-13T04:42:14;98119.78;;;25.77;48.54
18569;BME280;14780;48.316;-1.050;2022-09-13T04:44:59;98134.59;;;25.76;48.63
18569;BME280;14780;48.316;-1.050;2022-09-13T04:47:49;98141.19;;;25.75;48.59
18569;BME280;14780;48.316;-1.050;2022-09-13T04:50:34;98142.31;;;25.74;48.61
18569;BME280;14780;48.316;-1.050;2022-09-13T04:53:18;98148.59;;;25.75;48.46
18569;BME280;14780;48.316;-1.050;2022-09-13T04:56:03;98150.53;;;25.74;48.55
18569;BME280;14780;48.316;-1.050;2022-09-13T04:58:53;98163.41;;;25.74;48.73
18569;BME280;14780;48.316;-1.050;2022-09-13T05:01:39;98170.31;;;25.71;48.72
18569;BME280;14780;48.316;-1.050;2022-09-13T05:04:23;98165.34;;;25.73;48.57
18569;BME280;14780;48.316;-1.050;2022-09-13T05:07:08;98180.47;;;25.71;48.49
18569;BME280;14780;48.316;-1.050;2022-09-13T05:09:53;98174.69;;;25.72;48.65
18569;BME280;14780;48.316;-1.050;2022-09-13T05:12:37;98175.78;;;25.71;48.68
18569;BME280;14780;48.316;-1.050;2022-09-13T05:15:22;98181.28;;;25.71;48.55
18569;BME280;14780;48.316;-1.050;2022-09-13T05:18:07;98189.81;;;25.70;48.68
18569;BME280;14780;48.316;-1.050;2022-09-13T05:20:56;98192.22;;;25.71;48.57
18569;BME280;14780;48.316;-1.050;2022-09-13T05:23:41;98193.69;;;25.69;48.62
18569;BME280;14780;48.316;-1.050;2022-09-13T05:26:28;98180.28;;;25.67;48.64
18569;BME280;14780;48.316;-1.050;2022-09-13T05:29:16;98192.03;;;25.68;48.62
18569;BME280;14780;48.316;-1.050;2022-09-13T05:32:01;98191.22;;;25.67;48.62
18569;BME280;14780;48.316;-1.050;2022-09-13T05:34:46;98185.75;;;25.67;48.82
18569;BME280;14780;48.316;-1.050;2022-09-13T05:37:31;98194.25;;;25.66;48.85
18569;BME280;14780;48.316;-1.050;2022-09-13T05:40:15;98185.25;;;25.65;48.57
18569;BME280;14780;48.316;-1.050;2022-09-13T05:43:00;98184.44;;;25.65;48.76
18569;BME280;14780;48.316;-1.050;2022-09-13T05:45:45;98187.16;;;25.65;48.86
18569;BME280;14780;48.316;-1.050;2022-09-13T05:48:30;98188.78;;;25.66;48.83
18569;BME280;14780;48.316;-1.050;2022-09-13T05:51:20;98177.53;;;25.67;48.88
18569;BME280;14780;48.316;-1.050;2022-09-13T05:54:05;98178.47;;;25.63;48.93
18569;BME280;14780;48.316;-1.050;2022-09-13T05:56:50;98182.50;;;25.65;48.79
18569;BME280;14780;48.316;-1.050;2022-09-13T05:59:36;98182.50;;;25.65;48.76
18569;BME280;14780;48.316;-1.050;2022-09-13T06:02:21;98176.00;;;25.61;48.91
18569;BME280;14780;48.316;-1.050;2022-09-13T06:05:09;98164.22;;;25.61;48.95
18569;BME280;14780;48.316;-1.050;2022-09-13T06:07:54;98154.91;;;25.62;48.84
18569;BME280;14780;48.316;-1.050;2022-09-13T06:10:38;98157.97;;;25.60;48.71
18569;BME280;14780;48.316;-1.050;2022-09-13T06:13:24;98158.75;;;25.61;48.89
18569;BME280;14780;48.316;-1.050;2022-09-13T06:16:11;98157.97;;;25.60;48.87
18569;BME280;14780;48.316;-1.050;2022-09-13T06:18:58;98160.69;;;25.60;49.04
18569;BME280;14780;48.316;-1.050;2022-09-13T06:21:43;98152.47;;;25.60;49.00
18569;BME280;14780;48.316;-1.050;2022-09-13T06:24:27;98149.25;;;25.58;49.07
18569;BME280;14780;48.316;-1.050;2022-09-13T06:27:13;98166.19;;;25.60;49.02
18569;BME280;14780;48.316;-1.050;2022-09-13T06:29:57;98177.13;;;25.60;48.85
18569;BME280;14780;48.316;-1.050;2022-09-13T06:32:42;98168.09;;;25.60;48.90
18569;BME280;14780;48.316;-1.050;2022-09-13T06:35:26;98168.91;;;25.60;49.04
18569;BME280;14780;48.316;-1.050;2022-09-13T06:38:11;98160.69;;;25.60;48.89
18569;BME280;14780;48.316;-1.050;2022-09-13T06:43:56;98150.84;;;25.59;48.93
18569;BME280;14780;48.316;-1.050;2022-09-13T06:46:42;98151.97;;;25.58;49.04
18569;BME280;14780;48.316;-1.050;2022-09-13T06:49:26;98148.41;;;25.58;48.85
18569;BME280;14780;48.316;-1.050;2022-09-13T06:52:12;98144.06;;;25.57;49.07
18569;BME280;14780;48.316;-1.050;2022-09-13T06:54:57;98147.63;;;25.57;49.12
18569;BME280;14780;48.316;-1.050;2022-09-13T06:57:42;98139.91;;;25.59;49.11
18569;BME280;14780;48.316;-1.050;2022-09-13T07:00:27;98141.53;;;25.60;49.07
18569;BME280;14780;48.316;-1.050;2022-09-13T07:03:11;98140.41;;;25.61;49.08
18569;BME280;14780;48.316;-1.050;2022-09-13T07:05:56;98134.91;;;25.61;49.08
18569;BME280;14780;48.316;-1.050;2022-09-13T07:08:41;98140.91;;;25.63;49.17
18569;BME280;14780;48.316;-1.050;2022-09-13T07:11:29;98140.91;;;25.63;49.09
18569;BME280;14780;48.316;-1.050;2022-09-13T07:14:17;98132.19;;;25.61;49.17
18569;BME280;14780;48.316;-1.050;2022-09-13T07:17:02;98130.56;;;25.60;49.11
18569;BME280;14780;48.316;-1.050;2022-09-13T07:19:48;98137.66;;;25.61;49.12
18569;BME280;14780;48.316;-1.050;2022-09-13T07:22:32;98134.91;;;25.61;49.07
18569;BME280;14780;48.316;-1.050;2022-09-13T07:25:17;98145.59;;;25.63;49.22
18569;BME280;14780;48.316;-1.050;2022-09-13T07:28:01;98153.47;;;25.64;49.33
18569;BME280;14780;48.316;-1.050;2022-09-13T07:30:46;98154.78;;;25.67;49.30
18569;BME280;14780;48.316;-1.050;2022-09-13T07:33:30;98154.78;;;25.67;49.15
18569;BME280;14780;48.316;-1.050;2022-09-13T07:36:15;98163.84;;;25.67;49.30
18569;BME280;14780;48.316;-1.050;2022-09-13T07:39:00;98150.63;;;25.69;49.15
18569;BME280;14780;48.316;-1.050;2022-09-13T07:41:46;98164.03;;;25.71;49.24
18569;BME280;14780;48.316;-1.050;2022-09-13T07:44:31;98152.78;;;25.72;49.19
18569;BME280;14780;48.316;-1.050;2022-09-13T07:47:16;98155.19;;;25.74;49.24
18569;BME280;14780;48.316;-1.050;2022-09-13T07:50:01;98152.97;;;25.76;49.29
18569;BME280;14780;48.316;-1.050;2022-09-13T07:52:46;98162.00;;;25.76;49.27
18569;BME280;14780;48.316;-1.050;2022-09-13T07:55:30;98149.91;;;25.77;49.16
18569;BME280;14780;48.316;-1.050;2022-09-13T07:58:16;98153.47;;;25.78;49.21
18569;BME280;14780;48.316;-1.050;2022-09-13T08:01:06;98145.75;;;25.80;49.37
18569;BME280;14780;48.316;-1.050;2022-09-13T08:06:39;98158.84;;;25.83;49.25
18569;BME280;14780;48.316;-1.050;2022-09-13T08:09:24;98159.16;;;25.81;49.49
18569;BME280;14780;48.316;-1.050;2022-09-13T08:12:09;98154.66;;;25.85;49.89
18569;BME280;14780;48.316;-1.050;2022-09-13T08:14:54;98162.31;;;25.88;49.94
18569;BME280;14780;48.316;-1.050;2022-09-13T08:17:38;98155.50;;;25.86;50.20
18569;BME280;14780;48.316;-1.050;2022-09-13T08:20:23;98162.38;;;25.83;50.37
18569;BME280;14780;48.316;-1.050;2022-09-13T08:23:10;98170.13;;;25.81;50.62
18569;BME280;14780;48.316;-1.050;2022-09-13T08:26:00;98169.00;;;25.82;50.55
18569;BME280;14780;48.316;-1.050;2022-09-13T08:28:46;98182.69;;;25.82;50.70
18569;BME280;14780;48.316;-1.050;2022-09-13T08:31:31;98188.19;;;25.82;50.61
18569;BME280;14780;48.316;-1.050;2022-09-13T08:34:16;98185.44;;;25.82;50.92
18569;BME280;14780;48.316;-1.050;2022-09-13T08:37:01;98193.84;;;25.86;50.95
18569;BME280;14780;48.316;-1.050;2022-09-13T08:39:47;98191.41;;;25.84;50.93
18569;BME280;14780;48.316;-1.050;2022-09-13T08:42:45;98194.69;;;25.86;50.67
18569;BME280;14780;48.316;-1.050;2022-09-13T08:45:33;98196.41;;;25.82;50.87
18569;BME280;14780;48.316;-1.050;2022-09-13T08:48:22;98198.94;;;25.79;51.02
18569;BME280;14780;48.316;-1.050;2022-09-13T08:51:31;98199.13;;;25.82;50.80
18569;BME280;14780;48.316;-1.050;2022-09-13T08:54:19;98205.84;;;25.76;50.92
18569;BME280;14780;48.316;-1.050;2022-09-13T08:57:22;98203.59;;;25.78;51.02
18569;BME280;14780;48.316;-1.050;2022-09-13T09:00:30;98200.34;;;25.76;51.13
18569;BME280;14780;48.316;-1.050;2022-09-13T09:03:27;98210.63;;;25.71;51.33
18569;BME280;14780;48.316;-1.050;2022-09-13T09:06:16;98210.63;;;25.71;51.28
18569;BME280;14780;48.316;-1.050;2022-09-13T09:09:12;98219.63;;;25.71;51.36
18569;BME280;14780;48.316;-1.050;2022-09-13T09:12:23;98221.88;;;25.69;51.66
18569;BME280;14780;48.316;-1.050;2022-09-13T09:15:19;98210.91;;;25.69;51.69
18569;BME280;14780;48.316;-1.050;2022-09-13T09:18:18;98204.09;;;25.67;51.52
18569;BME280;14780;48.316;-1.050;2022-09-13T09:21:09;98203.31;;;25.66;51.60
18569;BME280;14780;48.316;-1.050;2022-09-13T09:23:57;98198.94;;;25.65;51.81
18569;BME280;14780;48.316;-1.050;2022-09-13T09:26:43;98198.94;;;25.65;51.86
18569;BME280;14780;48.316;-1.050;2022-09-13T09:29:30;98210.13;;;25.69;51.98
18569;BME280;14780;48.316;-1.050;2022-09-13T09:38:41;98214.16;;;25.71;52.19
18569;BME280;14780;48.316;-1.050;2022-09-13T09:41:32;98218.22;;;25.74;52.30
18569;BME280;14780;48.316;-1.050;2022-09-13T09:44:24;98215.19;;;25.75;52.41
18569;BME280;14780;48.316;-1.050;2022-09-13T09:47:20;98210.72;;;25.79;52.38
18569;BME280;14780;48.316;-1.050;2022-09-13T09:53:05;98212.44;;;25.75;52.53
18569;BME280;14780;48.316;-1.050;2022-09-13T09:55:59;98221.69;;;25.79;52.62
18569;BME280;14780;48.316;-1.050;2022-09-13T09:58:46;98222.91;;;25.73;52.90
18569;BME280;14780;48.316;-1.050;2022-09-13T10:01:33;98230.78;;;25.75;52.95
18569;BME280;14780;48.316;-1.050;2022-09-13T10:04:22;98227.75;;;25.76;52.96
18569;BME280;14780;48.316;-1.050;2022-09-13T10:07:25;98226.53;;;25.82;52.99
18569;BME280;14780;48.316;-1.050;2022-09-13T10:10:25;98237.50;;;25.82;52.72
18569;BME280;14780;48.316;-1.050;2022-09-13T10:13:16;98235.88;;;25.81;52.98
18569;BME280;14780;48.316;-1.050;2022-09-13T10:16:05;98243.28;;;25.81;53.24
18569;BME280;14780;48.316;-1.050;2022-09-13T10:18:50;98240.53;;;25.81;53.35
18569;BME280;14780;48.316;-1.050;2022-09-13T10:21:36;98238.91;;;25.80;53.24
18569;BME280;14780;48.316;-1.050;2022-09-13T10:24:21;98248.47;;;25.82;53.45
18569;BME280;14780;48.316;-1.050;2022-09-13T10:30:16;98244.09;;;25.81;53.52
18569;BME280;14780;48.316;-1.050;2022-09-13T10:33:23;98240.75;;;25.84;53.29
18569;BME280;14780;48.316;-1.050;2022-09-13T10:36:19;98239.94;;;25.84;53.52
18569;BME280;14780;48.316;-1.050;2022-09-13T10:39:16;98231.72;;;25.84;53.29
18569;BME280;14780;48.316;-1.050;2022-09-13T10:42:07;98233.94;;;25.82;53.60
18569;BME280;14780;48.316;-1.050;2022-09-13T10:44:57;98224.91;;;25.81;53.96
18569;BME280;14780;48.316;-1.050;2022-09-13T10:47:45;98221.06;;;25.82;53.80
18569;BME280;14780;48.316;-1.050;2022-09-13T10:50:31;98211.72;;;25.83;53.98
18569;BME280;14780;48.316;-1.050;2022-09-13T10:53:39;98213.88;;;25.86;53.87
18569;BME280;14780;48.316;-1.050;2022-09-13T10:56:27;98194.16;;;25.84;53.98
18569;BME280;14780;48.316;-1.050;2022-09-13T10:59:26;98180.66;;;25.88;53.99
18569;BME280;14780;48.316;-1.050;2022-09-13T11:02:40;98172.66;;;25.91;53.88
18569;BME280;14780;48.316;-1.050;2022-09-13T11:06:11;98175.41;;;25.91;53.89
18569;BME280;14780;48.316;-1.050;2022-09-13T11:09:35;98176.22;;;25.92;53.96
18569;BME280;14780;48.316;-1.050;2022-09-13T11:16:03;98170.41;;;25.93;54.14
18569;BME280;14780;48.316;-1.050;2022-09-13T11:29:04;98167.28;;;26.00;54.12
18569;BME280;14780;48.316;-1.050;2022-09-13T11:38:35;98166.34;;;26.04;54.80
18569;BME280;14780;48.316;-1.050;2022-09-13T11:44:31;98158.00;;;26.09;54.49
18569;BME280;14780;48.316;-1.050;2022-09-13T11:56:56;98133.94;;;26.06;54.89
18569;BME280;14780;48.316;-1.050;2022-09-13T11:59:56;98132.03;;;26.07;54.63
18569;BME280;14780;48.316;-1.050;2022-09-13T12:03:00;98124.59;;;26.07;54.70
18569;BME280;14780;48.316;-1.050;2022-09-13T12:05:47;98129.09;;;26.03;54.68
18569;BME280;14780;48.316;-1.050;2022-09-13T12:08:44;98141.03;;;26.07;54.61
18569;BME280;14780;48.316;-1.050;2022-09-13T12:11:38;98133.94;;;26.06;54.72
18569;BME280;14780;48.316;-1.050;2022-09-13T12:14:28;98135.88;;;26.06;54.75
18569;BME280;14780;48.316;-1.050;2022-09-13T12:17:34;98125.72;;;26.06;54.61
18569;BME280;14780;48.316;-1.050;2022-09-13T12:20:34;98133.16;;;26.06;54.60
18569;BME280;14780;48.316;-1.050;2022-09-13T12:23:59;98121.06;;;26.07;54.50
18569;BME280;14780;48.316;-1.050;2022-09-13T12:27:06;98118.91;;;26.04;54.55
18569;BME280;14780;48.316;-1.050;2022-09-13T12:30:13;98124.22;;;26.00;54.59
18569;BME280;14780;48.316;-1.050;2022-09-13T12:32:58;98115.00;;;25.96;54.79
18569;BME280;14780;48.316;-1.050;2022-09-13T12:36:08;98115.97;;;26.00;54.54
18569;BME280;14780;48.316;-1.050;2022-09-13T12:39:18;98114.69;;;25.98;54.58
18569;BME280;14780;48.316;-1.050;2022-09-13T12:45:29;98121.28;;;25.97;54.67
18569;BME280;14780;48.316;-1.050;2022-09-13T12:55:01;98102.91;;;25.97;54.56
18569;BME280;14780;48.316;-1.050;2022-09-13T12:57:34;98095.00;;;25.96;54.70
18569;BME280;14780;48.316;-1.050;2022-09-13T13:00:32;98095.31;;;25.94;54.73
18569;BME280;14780;48.316;-1.050;2022-09-13T13:03:20;98098.06;;;25.94;54.45
18569;BME280;14780;48.316;-1.050;2022-09-13T13:12:32;98087.97;;;26.03;54.36
18569;BME280;14780;48.316;-1.050;2022-09-13T13:18:47;98071.22;;;26.05;54.48
18569;BME280;14780;48.316;-1.050;2022-09-13T13:21:39;98068.78;;;26.03;54.51
18569;BME280;14780;48.316;-1.050;2022-09-13T13:27:38;98065.78;;;26.13;54.43
18569;BME280;14780;48.316;-1.050;2022-09-13T13:30:50;98051.31;;;26.21;54.29
18569;BME280;14780;48.316;-1.050;2022-09-13T13:33:54;98052.81;;;26.27;54.41
18569;BME280;14780;48.316;-1.050;2022-09-13T13:36:43;98054.50;;;26.37;54.39
18569;BME280;14780;48.316;-1.050;2022-09-13T13:45:34;98055.19;;;26.64;54.28
18569;BME280;14780;48.316;-1.050;2022-09-13T13:48:35;98064.94;;;26.79;54.12
18569;BME280;14780;48.316;-1.050;2022-09-13T13:51:22;98055.94;;;26.87;54.03
18569;BME280;14780;48.316;-1.050;2022-09-13T13:54:28;98062.13;;;27.01;53.76
18569;BME280;14780;48.316;-1.050;2022-09-13T13:57:51;98057.44;;;27.01;53.58
18569;BME280;14780;48.316;-1.050;2022-09-13T14:00:52;98055.34;;;26.98;53.45
18569;BME280;14780;48.316;-1.050;2022-09-13T14:07:23;98049.31;;;26.88;53.24
18569;BME280;14780;48.316;-1.050;2022-09-13T14:17:16;98049.09;;;26.76;53.36
18569;BME280;14780;48.316;-1.050;2022-09-13T14:19:52;98045.06;;;26.73;53.37
18569;BME280;14780;48.316;-1.050;2022-09-13T14:22:39;98043.44;;;26.72;53.32
18569;BME280;14780;48.316;-1.050;2022-09-13T14:25:24;98037.16;;;26.72;53.33
18569;BME280;14780;48.316;-1.050;2022-09-13T14:28:16;98041.22;;;26.74;53.25
18569;BME280;14780;48.316;-1.050;2022-09-13T14:31:03;98044.44;;;26.76;53.10
18569;BME280;14780;48.316;-1.050;2022-09-13T14:33:48;98036.06;;;26.81;53.04
18569;BME280;14780;48.316;-1.050;2022-09-13T14:36:34;98037.03;;;26.85;53.05
18569;BME280;14780;48.316;-1.050;2022-09-13T14:39:19;98036.44;;;26.88;53.19
18569;BME280;14780;48.316;-1.050;2022-09-13T14:42:15;98030.47;;;26.95;53.16
18569;BME280;14780;48.316;-1.050;2022-09-13T14:44:59;98027.06;;;26.89;53.08
18569;BME280;14780;48.316;-1.050;2022-09-13T14:50:44;98023.31;;;26.85;52.79
18569;BME280;14780;48.316;-1.050;2022-09-13T14:53:33;98020.56;;;26.85;52.89
18569;BME280;14780;48.316;-1.050;2022-09-13T14:56:41;98026.56;;;26.87;52.88
18569;BME280;14780;48.316;-1.050;2022-09-13T14:59:45;98022.19;;;26.86;52.88
18569;BME280;14780;48.316;-1.050;2022-09-13T15:02:36;98022.00;;;26.83;52.96
18569;BME280;14780;48.316;-1.050;2022-09-13T15:05:25;98012.50;;;26.80;52.86
18569;BME280;14780;48.316;-1.050;2022-09-13T15:11:31;98010.84;;;26.79;52.94
18569;BME280;14780;48.316;-1.050;2022-09-13T15:14:42;98013.59;;;26.79;52.96
18569;BME280;14780;48.316;-1.050;2022-09-13T15:17:27;98006.66;;;26.73;52.99
18569;BME280;14780;48.316;-1.050;2022-09-13T15:20:12;98016.00;;;26.72;52.84
18569;BME280;14780;48.316;-1.050;2022-09-13T15:22:57;98015.50;;;26.70;52.92
18569;BME280;14780;48.316;-1.050;2022-09-13T15:25:48;98004.53;;;26.70;53.02
18569;BME280;14780;48.316;-1.050;2022-09-13T15:28:54;98013.25;;;26.72;53.02
18569;BME280;14780;48.316;-1.050;2022-09-13T15:31:40;98009.84;;;26.67;52.97
18569;BME280;14780;48.316;-1.050;2022-09-13T15:34:25;97999.16;;;26.65;52.87
18569;BME280;14780;48.316;-1.050;2022-09-13T15:37:13;97997.56;;;26.64;52.88
18569;BME280;14780;48.316;-1.050;2022-09-13T15:40:11;97996.59;;;26.69;52.87
18569;BME280;14780;48.316;-1.050;2022-09-13T15:42:58;98000.81;;;26.66;52.80
18569;BME280;14780;48.316;-1.050;2022-09-13T15:45:44;97991.47;;;26.67;53.03
18569;BME280;14780;48.316;-1.050;2022-09-13T15:48:31;97984.03;;;26.68;53.09
18569;BME280;14780;48.316;-1.050;2022-09-13T15:51:17;97985.16;;;26.67;53.00
18569;BME280;14780;48.316;-1.050;2022-09-13T15:54:04;97965.63;;;26.68;52.99
18569;BME280;14780;48.316;-1.050;2022-09-13T15:56:52;97971.91;;;26.69;52.96
18569;BME280;14780;48.316;-1.050;2022-09-13T15:59:37;97979.66;;;26.67;53.13
18569;BME280;14780;48.316;-1.050;2022-09-13T16:02:28;97972.72;;;26.69;53.07
18569;BME280;14780;48.316;-1.050;2022-09-13T16:05:16;97972.09;;;26.72;52.89
18569;BME280;14780;48.316;-1.050;2022-09-13T16:08:01;97953.38;;;26.74;53.07
18569;BME280;14780;48.316;-1.050;2022-09-13T16:10:46;97965.34;;;26.78;52.84
18569;BME280;14780;48.316;-1.050;2022-09-13T16:13:31;97950.47;;;26.79;53.02
18569;BME280;14780;48.316;-1.050;2022-09-13T16:16:16;97959.22;;;26.81;53.11
18569;BME280;14780;48.316;-1.050;2022-09-13T16:19:02;97960.84;;;26.82;52.93
18569;BME280;14780;48.316;-1.050;2022-09-13T16:21:48;97955.34;;;26.82;53.15
18569;BME280;14780;48.316;-1.050;2022-09-13T16:24:33;97943.06;;;26.80;53.15
18569;BME280;14780;48.316;-1.050;2022-09-13T16:27:19;97950.47;;;26.79;53.01
18569;BME280;14780;48.316;-1.050;2022-09-13T16:30:05;97952.91;;;26.81;52.99
18569;BME280;14780;48.316;-1.050;2022-09-13T16:32:50;97948.06;;;26.78;53.09
18569;BME280;14780;48.316;-1.050;2022-09-13T16:35:35;97950.00;;;26.77;53.23
18569;BME280;14780;48.316;-1.050;2022-09-13T16:38:20;97958.22;;;26.77;52.98
18569;BME280;14780;48.316;-1.050;2022-09-13T16:41:06;97957.44;;;26.77;53.18
18569;BME280;14780;48.316;-1.050;2022-09-13T16:43:53;97962.09;;;26.76;52.92
18569;BME280;14780;48.316;-1.050;2022-09-13T16:46:38;97967.13;;;26.74;53.19
18569;BME280;14780;48.316;-1.050;2022-09-13T16:49:24;97969.84;;;26.74;53.08
18569;BME280;14780;48.316;-1.050;2022-09-13T16:52:09;97973.72;;;26.73;53.04
18569;BME280;14780;48.316;-1.050;2022-09-13T16:54:55;97964.38;;;26.74;53.02
18569;BME280;14780;48.316;-1.050;2022-09-13T16:57:40;97969.84;;;26.74;53.30
18569;BME280;14780;48.316;-1.050;2022-09-13T17:00:25;97971.47;;;26.75;53.19
18569;BME280;14780;48.316;-1.050;2022-09-13T17:03:12;97980.84;;;26.74;53.35
18569;BME280;14780;48.316;-1.050;2022-09-13T17:05:58;97983.25;;;26.76;53.36